Terminal Aerodrome Forecast
Issued by NWS Wilmington, OH

Current Version | Previous Version | Graphics & Text | Print | Product List | Glossary On
Versions: 1 2 3 4 5 6 7 8 9 10 11 12 13 14 15 16
296
FTUS41 KILN 242349 CCA
TAFILN
TAF COR
KILN 242349Z 2500/2524 11008KT P6SM VCTS OVC045CB
     FM250700 18009KT P6SM VCTS OVC008CB
     FM250900 19008KT P6SM VCSH OVC009
     FM251300 20007KT 5SM -SHRA OVC011
     FM251800 28013KT P6SM VCSH OVC010=

USA.gov is the U.S. government's official web portal to all federal, state and local government web resources and services.